createdAt,value
2022-08-21T00:00:20.861Z,9.07
2022-08-21T00:03:08.315Z,7.97
2022-08-21T00:05:54.409Z,8.10
2022-08-21T00:08:40.330Z,8.50
2022-08-21T00:11:28.008Z,8.50
2022-08-21T00:14:14.691Z,8.53
2022-08-21T00:17:00.773Z,8.87
2022-08-21T00:19:46.239Z,7.73
2022-08-21T00:22:31.491Z,7.77
2022-08-21T00:25:18.017Z,9.33
2022-08-21T00:28:07.478Z,8.63
2022-08-21T00:30:52.712Z,9.07
2022-08-21T00:33:38.070Z,8.37
2022-08-21T00:36:23.349Z,9.40
2022-08-21T00:39:09.479Z,9.30
2022-08-21T00:41:54.953Z,9.10
2022-08-21T00:44:40.373Z,9.20
2022-08-21T00:47:26.147Z,10.20
2022-08-21T00:50:15.042Z,9.10
2022-08-21T00:53:08.780Z,10.53
2022-08-21T00:55:56.622Z,10.13
2022-08-21T00:58:43.839Z,9.20
2022-08-21T01:01:29.230Z,9.70
2022-08-21T01:04:14.432Z,9.83
2022-08-21T01:06:59.879Z,9.50
2022-08-21T01:09:47.662Z,9.23
2022-08-21T01:12:34.431Z,9.77
2022-08-21T01:15:22.707Z,9.40
2022-08-21T01:18:11.962Z,10.13
2022-08-21T01:21:16.534Z,9.57
2022-08-21T01:24:01.738Z,9.40
2022-08-21T01:26:47.342Z,9.57
2022-08-21T01:29:48.685Z,9.37
2022-08-21T01:32:34.609Z,9.73
2022-08-21T01:35:21.323Z,9.57
2022-08-21T01:38:06.721Z,9.57
2022-08-21T01:40:51.987Z,9.60
2022-08-21T01:43:39.624Z,9.37
2022-08-21T01:46:25.712Z,9.10
2022-08-21T01:49:11.405Z,9.83
2022-08-21T01:51:56.675Z,9.23
2022-08-21T01:54:42.867Z,9.07
2022-08-21T01:57:28.405Z,8.73
2022-08-21T02:00:16.593Z,8.90
2022-08-21T02:03:01.912Z,8.13
2022-08-21T02:05:47.211Z,8.03
2022-08-21T02:08:32.854Z,7.53
2022-08-21T02:11:18.718Z,7.23
2022-08-21T02:14:04.548Z,6.90
2022-08-21T02:16:50.077Z,6.93
2022-08-21T02:19:39.548Z,7.57
2022-08-21T02:22:26.012Z,7.23
2022-08-21T02:25:11.642Z,6.60
2022-08-21T02:27:57.599Z,6.40
2022-08-21T02:30:46.282Z,6.23
2022-08-21T02:33:31.734Z,6.40
2022-08-21T02:36:16.977Z,6.43
2022-08-21T02:39:02.324Z,5.83
2022-08-21T02:41:47.694Z,5.97
2022-08-21T02:44:34.584Z,6.20
2022-08-21T02:47:20.242Z,5.60
2022-08-21T02:50:06.734Z,5.67
2022-08-21T02:52:55.115Z,6.03
2022-08-21T02:55:40.809Z,5.37
2022-08-21T02:58:32.240Z,5.37
2022-08-21T03:01:18.359Z,5.73
2022-08-21T03:04:03.663Z,5.03
2022-08-21T03:06:49.387Z,5.47
2022-08-21T03:09:34.575Z,4.90
2022-08-21T03:12:19.817Z,5.37
2022-08-21T03:15:10.466Z,4.60
2022-08-21T03:17:56.339Z,4.97
2022-08-21T03:20:43.135Z,4.93
2022-08-21T03:23:32.596Z,4.67
2022-08-21T03:26:18.915Z,4.80
2022-08-21T03:29:06.733Z,4.73
2022-08-21T03:31:54.522Z,4.30
2022-08-21T03:34:40.224Z,4.53
2022-08-21T03:37:25.503Z,4.27
2022-08-21T03:40:12.584Z,4.17
2022-08-21T03:42:57.796Z,4.33
2022-08-21T03:45:42.947Z,4.87
2022-08-21T03:48:28.839Z,4.60
2022-08-21T03:51:14.122Z,4.50
2022-08-21T03:53:59.376Z,4.23
2022-08-21T03:56:44.788Z,4.10
2022-08-21T03:59:30.185Z,4.20
2022-08-21T04:02:19.567Z,4.40
2022-08-21T04:05:05.893Z,5.07
2022-08-21T04:07:51.006Z,4.73
2022-08-21T04:10:39.011Z,5.00
2022-08-21T04:13:24.555Z,4.40
2022-08-21T04:16:09.958Z,4.53
2022-08-21T04:18:55.275Z,4.50
2022-08-21T04:21:41.359Z,4.10
2022-08-21T04:24:29.996Z,4.63
2022-08-21T04:27:15.430Z,4.43
2022-08-21T04:30:01.938Z,4.73
2022-08-21T04:32:50.350Z,4.73
2022-08-21T04:35:36.620Z,4.67
2022-08-21T04:38:22.620Z,4.63
2022-08-21T04:41:08.216Z,4.60
2022-08-21T04:43:53.639Z,4.03
2022-08-21T04:46:38.928Z,4.77
2022-08-21T04:49:24.247Z,4.47
2022-08-21T04:52:09.893Z,4.50
2022-08-21T04:54:55.394Z,4.50
2022-08-21T04:57:48.937Z,4.23
2022-08-21T05:00:34.871Z,4.33
2022-08-21T05:03:20.125Z,4.10
2022-08-21T05:06:09.612Z,4.87
2022-08-21T05:09:02.107Z,4.47
2022-08-21T05:11:48.105Z,4.25
2022-08-21T05:14:34.037Z,4.73
2022-08-21T05:17:19.623Z,3.97
2022-08-21T05:20:05.687Z,4.37
2022-08-21T05:22:51.254Z,4.57
2022-08-21T05:25:36.891Z,4.23
2022-08-21T05:28:22.384Z,4.47
2022-08-21T05:31:07.671Z,4.70
2022-08-21T05:33:53.188Z,4.73
2022-08-21T05:36:41.480Z,4.23
2022-08-21T05:39:27.063Z,4.73
2022-08-21T05:42:32.628Z,5.00
2022-08-21T05:45:18.374Z,3.97
2022-08-21T05:48:25.199Z,5.27
2022-08-21T05:51:15.324Z,5.30
2022-08-21T05:54:00.907Z,5.53
2022-08-21T05:56:46.257Z,7.23
2022-08-21T05:59:31.626Z,7.43
2022-08-21T06:02:19.350Z,6.93
2022-08-21T06:05:04.780Z,6.40
2022-08-21T06:07:50.468Z,8.03
2022-08-21T06:10:35.844Z,7.43
2022-08-21T06:13:21.930Z,7.20
2022-08-21T06:16:11.161Z,7.87
2022-08-21T06:19:03.109Z,7.73
2022-08-21T06:21:49.097Z,7.80
2022-08-21T06:24:34.872Z,7.60
2022-08-21T06:27:24.675Z,7.70
2022-08-21T06:30:12.453Z,8.67
2022-08-21T06:32:58.635Z,9.20
2022-08-21T06:35:44.266Z,8.07
2022-08-21T06:38:29.671Z,8.10
2022-08-21T06:41:16.948Z,8.27
2022-08-21T06:44:02.905Z,7.00
2022-08-21T06:46:48.603Z,8.30
2022-08-21T06:49:34.098Z,8.27
2022-08-21T06:52:19.731Z,8.50
2022-08-21T06:55:07.712Z,8.37
2022-08-21T06:57:53.564Z,7.73
2022-08-21T07:00:46.015Z,7.93
2022-08-21T07:03:34.938Z,7.10
2022-08-21T07:06:20.889Z,8.27
2022-08-21T07:09:06.130Z,7.80
2022-08-21T07:11:54.429Z,8.03
2022-08-21T07:14:40.207Z,8.40
2022-08-21T07:17:25.430Z,7.87
2022-08-21T07:20:10.814Z,7.70
2022-08-21T07:23:02.729Z,7.63
2022-08-21T07:25:48.026Z,7.93
2022-08-21T07:28:34.050Z,8.33
2022-08-21T07:31:22.361Z,8.30
2022-08-21T07:34:09.344Z,8.00
2022-08-21T07:36:55.256Z,8.40
2022-08-21T07:39:40.890Z,7.70
2022-08-21T07:42:26.513Z,7.93
2022-08-21T07:45:13.362Z,10.40
2022-08-21T07:47:58.785Z,8.30
2022-08-21T07:50:44.183Z,8.10
2022-08-21T07:53:29.851Z,9.70
2022-08-21T07:56:15.166Z,8.77
2022-08-21T07:59:00.689Z,7.80
2022-08-21T08:01:46.237Z,10.07
2022-08-21T08:04:31.917Z,7.67
2022-08-21T08:07:17.695Z,7.63
2022-08-21T08:10:05.357Z,7.50
2022-08-21T08:12:52.303Z,7.70
2022-08-21T08:15:38.083Z,8.10
2022-08-21T08:18:23.412Z,7.90
2022-08-21T08:21:10.196Z,8.00
2022-08-21T08:23:56.207Z,6.90
2022-08-21T08:26:41.794Z,8.40
2022-08-21T08:29:27.413Z,8.47
2022-08-21T08:32:15.469Z,8.47
2022-08-21T08:35:00.814Z,9.00
2022-08-21T08:37:47.361Z,8.80
2022-08-21T08:40:52.971Z,9.27
2022-08-21T08:43:38.311Z,8.13
2022-08-21T08:46:47.910Z,8.20
2022-08-21T08:49:41.298Z,8.10
2022-08-21T08:52:43.620Z,7.90
2022-08-21T08:55:41.167Z,7.00
2022-08-21T08:58:31.325Z,6.87
2022-08-21T09:01:19.860Z,7.03
2022-08-21T09:04:05.660Z,6.77
2022-08-21T09:06:58.750Z,6.33
2022-08-21T09:10:23.987Z,6.07
2022-08-21T09:13:20.226Z,6.57
2022-08-21T09:16:10.197Z,6.27
2022-08-21T09:19:09.341Z,6.60
2022-08-21T09:22:11.083Z,5.80
2022-08-21T09:25:20.973Z,5.60
2022-08-21T09:28:12.518Z,5.77
2022-08-21T09:31:03.641Z,5.37
2022-08-21T09:33:49.076Z,5.33
2022-08-21T09:36:46.545Z,5.07
2022-08-21T09:39:40.289Z,4.83
2022-08-21T09:42:36.002Z,4.50
2022-08-21T09:45:21.476Z,4.80
2022-08-21T09:48:26.961Z,4.33
2022-08-21T09:51:16.959Z,4.03
2022-08-21T09:54:08.903Z,4.13
2022-08-21T09:57:21.085Z,3.80
2022-08-21T10:00:31.936Z,3.90
2022-08-21T10:03:21.006Z,3.87
2022-08-21T10:06:11.307Z,3.60
2022-08-21T10:09:21.618Z,3.40
2022-08-21T10:12:29.941Z,3.73
2022-08-21T10:15:47.882Z,3.10
2022-08-21T10:18:51.116Z,3.10
2022-08-21T10:22:07.298Z,3.25
2022-08-21T10:25:00.183Z,2.90
2022-08-21T10:28:00.952Z,3.03
2022-08-21T10:31:08.604Z,2.90
2022-08-21T10:34:09.611Z,2.60
2022-08-21T10:37:15.079Z,2.87
2022-08-21T10:40:06.867Z,2.80
2022-08-21T10:43:22.030Z,2.63
2022-08-21T10:46:43.511Z,2.80
2022-08-21T10:49:54.362Z,3.00
2022-08-21T10:52:51.664Z,2.37
2022-08-21T10:55:57.583Z,2.37
2022-08-21T10:58:57.562Z,2.57
2022-08-21T11:02:05.082Z,2.43
2022-08-21T11:05:06.958Z,2.60
2022-08-21T11:08:04.287Z,2.47
2022-08-21T11:11:08.570Z,2.90
2022-08-21T11:13:59.906Z,2.70
2022-08-21T11:16:55.140Z,2.97
2022-08-21T11:19:49.005Z,2.93
2022-08-21T11:23:03.810Z,2.33
2022-08-21T11:25:59.286Z,2.40
2022-08-21T11:29:01.473Z,2.50
2022-08-21T11:32:01.727Z,2.67
2022-08-21T11:35:03.978Z,2.00
2022-08-21T11:37:55.328Z,3.27
2022-08-21T11:41:14.191Z,2.50
2022-08-21T11:44:08.614Z,2.47
2022-08-21T11:47:12.767Z,2.60
2022-08-21T11:50:29.699Z,2.20
2022-08-21T11:53:46.868Z,2.73
2022-08-21T11:56:40.053Z,3.00
2022-08-21T11:59:40.746Z,2.50
2022-08-21T12:02:32.994Z,2.50
2022-08-21T12:05:34.121Z,2.50
2022-08-21T12:08:31.534Z,2.20
2022-08-21T12:11:16.698Z,2.40
2022-08-21T12:14:08.397Z,2.37
2022-08-21T12:17:06.863Z,2.23
2022-08-21T12:20:15.571Z,2.33
2022-08-21T12:23:13.367Z,1.97
2022-08-21T12:26:33.145Z,2.03
2022-08-21T12:29:33.617Z,2.47
2022-08-21T12:32:18.762Z,2.30
2022-08-21T12:35:18.591Z,2.30
2022-08-21T12:38:19.051Z,2.30
2022-08-21T12:41:11.834Z,2.27
2022-08-21T12:44:40.547Z,2.10
2022-08-21T12:47:37.713Z,2.00
2022-08-21T12:50:45.353Z,2.00
2022-08-21T12:53:58.409Z,2.13
2022-08-21T12:56:43.580Z,1.90
2022-08-21T12:59:29.444Z,2.10
2022-08-21T13:02:21.373Z,2.27
2022-08-21T13:05:10.692Z,1.87
2022-08-21T13:07:56.782Z,1.80
2022-08-21T13:10:42.553Z,1.83
2022-08-21T13:13:29.350Z,2.20
2022-08-21T13:16:21.760Z,2.00
2022-08-21T13:19:09.564Z,1.80
2022-08-21T13:21:55.106Z,2.10
2022-08-21T13:24:43.387Z,2.03
2022-08-21T13:27:31.391Z,1.93
2022-08-21T13:30:22.208Z,1.80
2022-08-21T13:33:12.883Z,1.70
2022-08-21T13:36:01.441Z,1.90
2022-08-21T13:38:47.342Z,1.83
2022-08-21T13:41:37.730Z,2.13
2022-08-21T13:44:33.917Z,1.87
2022-08-21T13:47:19.602Z,1.90
2022-08-21T13:50:06.490Z,1.90
2022-08-21T13:53:01.840Z,1.90
2022-08-21T13:55:47.128Z,1.90
2022-08-21T13:58:52.971Z,1.57
2022-08-21T14:01:50.058Z,2.00
2022-08-21T14:04:59.976Z,1.93
2022-08-21T14:07:45.650Z,1.50
2022-08-21T14:10:32.198Z,1.87
2022-08-21T14:13:45.697Z,2.07
2022-08-21T14:16:44.651Z,1.60
2022-08-21T14:19:42.672Z,2.00
2022-08-21T14:22:49.727Z,2.10
2022-08-21T14:25:44.016Z,1.90
2022-08-21T14:28:34.713Z,1.70
2022-08-21T14:31:22.184Z,1.93
2022-08-21T14:34:19.360Z,1.93
2022-08-21T14:37:05.487Z,1.90
2022-08-21T14:39:51.257Z,1.70
2022-08-21T14:42:36.801Z,1.80
2022-08-21T14:45:31.663Z,1.80
2022-08-21T14:48:17.514Z,1.87
2022-08-21T14:51:03.026Z,2.03
2022-08-21T14:53:49.054Z,1.90
2022-08-21T14:56:35.923Z,2.07
2022-08-21T14:59:21.939Z,2.00
2022-08-21T15:02:09.080Z,1.70
2022-08-21T15:04:54.418Z,1.80
2022-08-21T15:07:39.718Z,1.67
2022-08-21T15:10:25.079Z,2.03
2022-08-21T15:13:10.574Z,2.43
2022-08-21T15:15:57.057Z,2.40
2022-08-21T15:18:42.933Z,2.50
2022-08-21T15:21:28.041Z,2.50
2022-08-21T15:24:13.304Z,2.33
2022-08-21T15:27:01.170Z,3.03
2022-08-21T15:29:46.766Z,3.30
2022-08-21T15:32:32.309Z,3.03
2022-08-21T15:35:18.107Z,3.07
2022-08-21T15:38:03.928Z,2.60
2022-08-21T15:40:51.929Z,2.73
2022-08-21T15:43:49.672Z,2.43
2022-08-21T15:46:34.898Z,2.90
2022-08-21T15:49:20.146Z,2.20
2022-08-21T15:52:05.598Z,2.30
2022-08-21T15:54:52.329Z,2.50
2022-08-21T15:57:40.432Z,2.80
2022-08-21T16:00:26.654Z,2.40
2022-08-21T16:03:16.803Z,2.00
2022-08-21T16:06:02.316Z,2.10
2022-08-21T16:08:47.657Z,2.37
2022-08-21T16:11:33.452Z,2.23
2022-08-21T16:14:19.118Z,2.23
2022-08-21T16:17:08.471Z,2.00
2022-08-21T16:19:54.072Z,2.20
2022-08-21T16:22:41.264Z,2.17
2022-08-21T16:25:30.474Z,2.40
2022-08-21T16:28:21.061Z,2.77
2022-08-21T16:31:06.392Z,2.60
2022-08-21T16:33:57.968Z,2.73
2022-08-21T16:36:43.543Z,2.90
2022-08-21T16:39:29.084Z,2.83
2022-08-21T16:42:20.390Z,2.80
2022-08-21T16:45:11.132Z,2.97
2022-08-21T16:47:56.297Z,2.80
2022-08-21T16:50:41.614Z,2.80
2022-08-21T16:53:26.961Z,3.17
2022-08-21T16:56:14.871Z,3.20
2022-08-21T16:59:00.391Z,2.80
2022-08-21T17:01:46.256Z,3.40
2022-08-21T17:04:32.054Z,3.50
2022-08-21T17:07:17.143Z,3.63
2022-08-21T17:10:02.330Z,3.10
2022-08-21T17:12:55.926Z,2.97
2022-08-21T17:15:42.201Z,2.70
2022-08-21T17:18:28.033Z,2.80
2022-08-21T17:21:18.648Z,2.93
2022-08-21T17:24:04.722Z,3.43
2022-08-21T17:26:50.426Z,2.87
2022-08-21T17:29:38.625Z,2.87
2022-08-21T17:32:25.390Z,2.40
2022-08-21T17:35:11.998Z,2.40
2022-08-21T17:37:57.967Z,2.73
2022-08-21T17:40:43.477Z,2.27
2022-08-21T17:43:28.912Z,2.43
2022-08-21T17:46:19.153Z,2.47
2022-08-21T17:49:06.699Z,2.10
2022-08-21T17:51:52.810Z,2.53
2022-08-21T17:54:38.176Z,2.50
2022-08-21T17:57:24.362Z,3.00
2022-08-21T18:00:12.680Z,2.43
2022-08-21T18:03:01.867Z,2.03
2022-08-21T18:05:49.365Z,2.43
2022-08-21T18:08:35.283Z,2.63
2022-08-21T18:11:24.254Z,2.53
2022-08-21T18:14:10.904Z,2.40
2022-08-21T18:16:56.458Z,2.20
2022-08-21T18:19:48.859Z,2.37
2022-08-21T18:22:34.951Z,2.67
2022-08-21T18:25:20.850Z,2.30
2022-08-21T18:28:07.531Z,2.40
2022-08-21T18:30:54.594Z,2.77
2022-08-21T18:33:57.559Z,2.43
2022-08-21T18:36:44.150Z,2.77
2022-08-21T18:39:38.250Z,2.30
2022-08-21T18:42:28.561Z,2.43
2022-08-21T18:45:18.843Z,2.37
2022-08-21T18:48:09.447Z,2.30
2022-08-21T18:50:55.310Z,2.17
2022-08-21T18:53:40.939Z,2.50
2022-08-21T18:56:27.376Z,2.03
2022-08-21T18:59:14.163Z,2.17
2022-08-21T19:02:00.196Z,2.10
2022-08-21T19:04:48.021Z,2.30
2022-08-21T19:07:34.210Z,2.20
2022-08-21T19:13:28.417Z,2.13
2022-08-21T19:16:14.837Z,2.20
2022-08-21T19:19:02.051Z,2.60
2022-08-21T19:24:53.658Z,2.10
2022-08-21T19:27:40.088Z,2.40
2022-08-21T19:30:28.275Z,2.20
2022-08-21T19:33:23.221Z,2.20
2022-08-21T19:36:10.720Z,2.33
2022-08-21T19:38:56.879Z,2.27
2022-08-21T19:41:46.104Z,2.20
2022-08-21T19:44:37.969Z,2.10
2022-08-21T19:47:29.448Z,2.03
2022-08-21T19:50:18.078Z,1.90
2022-08-21T19:53:11.999Z,2.20
2022-08-21T19:55:59.061Z,2.17
2022-08-21T20:01:54.496Z,1.83
2022-08-21T20:07:46.407Z,1.97
2022-08-21T20:10:31.984Z,1.93
2022-08-21T20:13:22.166Z,2.33
2022-08-21T20:16:10.021Z,2.03
2022-08-21T20:18:55.962Z,1.83
2022-08-21T20:21:43.610Z,1.70
2022-08-21T20:24:30.392Z,2.30
2022-08-21T20:27:23.141Z,2.13
2022-08-21T20:30:09.784Z,2.17
2022-08-21T20:32:55.344Z,2.30
2022-08-21T20:35:41.347Z,2.10
2022-08-21T20:38:26.684Z,2.27
2022-08-21T20:41:21.414Z,2.30
2022-08-21T20:44:16.965Z,1.97
2022-08-21T20:47:09.013Z,2.40
2022-08-21T20:50:00.744Z,2.30
2022-08-21T20:52:52.355Z,2.10
2022-08-21T20:55:41.777Z,2.47
2022-08-21T20:58:42.171Z,2.40
2022-08-21T21:01:31.815Z,2.23
2022-08-21T21:04:26.217Z,2.43
2022-08-21T21:07:18.310Z,2.40
2022-08-21T21:10:11.159Z,2.13
2022-08-21T21:13:05.495Z,2.30
2022-08-21T21:15:56.352Z,2.38
2022-08-21T21:19:06.180Z,2.53
2022-08-21T21:22:03.099Z,2.33
2022-08-21T21:25:00.964Z,3.07
2022-08-21T21:27:54.147Z,2.37
2022-08-21T21:30:46.725Z,2.80
2022-08-21T21:33:32.382Z,3.03
2022-08-21T21:37:06.833Z,2.87
2022-08-21T21:40:35.186Z,2.83
2022-08-21T21:43:32.772Z,2.93
2022-08-21T21:46:33.577Z,2.73
2022-08-21T21:49:57.239Z,2.93
2022-08-21T21:52:55.387Z,2.97
2022-08-21T21:56:11.266Z,2.90
2022-08-21T21:59:06.351Z,2.73
2022-08-21T22:02:08.703Z,2.67
2022-08-21T22:05:22.131Z,2.50
2022-08-21T22:08:30.154Z,2.50
2022-08-21T22:11:29.508Z,2.50
2022-08-21T22:14:22.744Z,2.73
2022-08-21T22:20:26.077Z,2.40
2022-08-21T22:23:19.552Z,2.33
2022-08-21T22:26:14.496Z,2.30
2022-08-21T22:29:05.555Z,2.33
2022-08-21T22:32:04.928Z,2.10
2022-08-21T22:35:15.505Z,2.37
2022-08-21T22:38:01.521Z,2.30
2022-08-21T22:40:47.142Z,2.40
2022-08-21T22:43:32.848Z,1.77
2022-08-21T22:46:27.320Z,2.17
2022-08-21T22:49:26.427Z,1.80
2022-08-21T22:52:29.346Z,1.83
2022-08-21T22:55:27.153Z,1.92
2022-08-21T22:58:25.122Z,1.90
2022-08-21T23:04:48.819Z,2.00
2022-08-21T23:07:44.400Z,1.97
2022-08-21T23:10:40.819Z,1.80
2022-08-21T23:13:30.303Z,1.80
2022-08-21T23:16:47.795Z,2.00
2022-08-21T23:20:12.830Z,1.97
2022-08-21T23:26:32.423Z,1.90
2022-08-21T23:29:26.184Z,1.80
2022-08-21T23:32:35.745Z,1.63
2022-08-21T23:36:10.304Z,1.63
2022-08-21T23:39:20.443Z,1.90
2022-08-21T23:42:12.109Z,1.47
2022-08-21T23:45:00.547Z,1.80
2022-08-21T23:48:11.186Z,1.73
2022-08-21T23:51:16.557Z,1.50
2022-08-21T23:54:22.591Z,1.80
2022-08-21T23:57:31.595Z,1.83
